sensor_id;sensor_type;location;lat;lon;timestamp;P1;durP1;ratioP1;P2;durP2;ratioP2
76409;SDS011;65238;42.662;23.280;2023-08-24T00:01:02;9.93;;;8.70;;
76409;SDS011;65238;42.662;23.280;2023-08-24T00:03:27;12.88;;;9.50;;
76409;SDS011;65238;42.662;23.280;2023-08-24T00:05:53;13.90;;;9.25;;
76409;SDS011;65238;42.662;23.280;2023-08-24T00:08:19;14.88;;;9.88;;
76409;SDS011;65238;42.662;23.280;2023-08-24T00:10:44;12.43;;;9.35;;
76409;SDS011;65238;42.662;23.280;2023-08-24T00:13:13;12.43;;;9.45;;
76409;SDS011;65238;42.662;23.280;2023-08-24T00:15:38;13.95;;;9.80;;
76409;SDS011;65238;42.662;23.280;2023-08-24T00:18:04;14.32;;;10.18;;
76409;SDS011;65238;42.662;23.280;2023-08-24T00:20:30;14.00;;;9.77;;
76409;SDS011;65238;42.662;23.280;2023-08-24T00:22:55;10.77;;;9.68;;
76409;SDS011;65238;42.662;23.280;2023-08-24T00:25:20;12.35;;;9.43;;
76409;SDS011;65238;42.662;23.280;2023-08-24T00:27:45;11.30;;;9.50;;
76409;SDS011;65238;42.662;23.280;2023-08-24T00:30:11;12.70;;;10.40;;
76409;SDS011;65238;42.662;23.280;2023-08-24T00:32:36;11.95;;;9.57;;
76409;SDS011;65238;42.662;23.280;2023-08-24T00:35:02;11.50;;;10.05;;
76409;SDS011;65238;42.662;23.280;2023-08-24T00:37:28;11.38;;;9.60;;
76409;SDS011;65238;42.662;23.280;2023-08-24T00:39:53;10.95;;;9.75;;
76409;SDS011;65238;42.662;23.280;2023-08-24T00:42:19;12.02;;;9.55;;
76409;SDS011;65238;42.662;23.280;2023-08-24T00:44:44;13.93;;;10.45;;
76409;SDS011;65238;42.662;23.280;2023-08-24T00:47:10;15.82;;;10.00;;
76409;SDS011;65238;42.662;23.280;2023-08-24T00:49:35;12.40;;;9.38;;
76409;SDS011;65238;42.662;23.280;2023-08-24T00:52:01;12.32;;;9.68;;
76409;SDS011;65238;42.662;23.280;2023-08-24T00:54:26;14.25;;;10.18;;
76409;SDS011;65238;42.662;23.280;2023-08-24T00:56:52;18.27;;;10.10;;
76409;SDS011;65238;42.662;23.280;2023-08-24T00:59:17;12.02;;;9.13;;
76409;SDS011;65238;42.662;23.280;2023-08-24T01:01:43;16.33;;;10.43;;
76409;SDS011;65238;42.662;23.280;2023-08-24T01:04:09;14.88;;;9.55;;
76409;SDS011;65238;42.662;23.280;2023-08-24T01:06:36;15.40;;;9.85;;
76409;SDS011;65238;42.662;23.280;2023-08-24T01:09:01;11.80;;;9.93;;
76409;SDS011;65238;42.662;23.280;2023-08-24T01:11:35;13.83;;;9.63;;
76409;SDS011;65238;42.662;23.280;2023-08-24T01:14:16;17.45;;;10.65;;
76409;SDS011;65238;42.662;23.280;2023-08-24T01:16:45;15.02;;;9.55;;
76409;SDS011;65238;42.662;23.280;2023-08-24T01:19:16;10.77;;;9.20;;
76409;SDS011;65238;42.662;23.280;2023-08-24T01:21:47;12.10;;;10.07;;
76409;SDS011;65238;42.662;23.280;2023-08-24T01:24:13;12.57;;;10.25;;
76409;SDS011;65238;42.662;23.280;2023-08-24T01:26:42;11.98;;;9.63;;
76409;SDS011;65238;42.662;23.280;2023-08-24T01:29:08;14.27;;;10.52;;
76409;SDS011;65238;42.662;23.280;2023-08-24T01:31:34;13.95;;;10.68;;
76409;SDS011;65238;42.662;23.280;2023-08-24T01:33:59;15.65;;;11.20;;
76409;SDS011;65238;42.662;23.280;2023-08-24T01:36:26;14.15;;;10.05;;
76409;SDS011;65238;42.662;23.280;2023-08-24T01:38:54;15.43;;;11.70;;
76409;SDS011;65238;42.662;23.280;2023-08-24T01:41:22;11.00;;;9.65;;
76409;SDS011;65238;42.662;23.280;2023-08-24T01:43:49;17.48;;;10.98;;
76409;SDS011;65238;42.662;23.280;2023-08-24T01:46:16;12.60;;;10.90;;
76409;SDS011;65238;42.662;23.280;2023-08-24T01:48:44;12.45;;;10.52;;
76409;SDS011;65238;42.662;23.280;2023-08-24T01:51:09;17.23;;;10.38;;
76409;SDS011;65238;42.662;23.280;2023-08-24T01:53:35;19.17;;;11.45;;
76409;SDS011;65238;42.662;23.280;2023-08-24T01:56:00;14.60;;;10.13;;
76409;SDS011;65238;42.662;23.280;2023-08-24T01:58:26;16.45;;;11.15;;
76409;SDS011;65238;42.662;23.280;2023-08-24T02:00:51;18.40;;;11.70;;
76409;SDS011;65238;42.662;23.280;2023-08-24T02:03:16;15.35;;;11.82;;
76409;SDS011;65238;42.662;23.280;2023-08-24T02:05:42;15.45;;;11.15;;
76409;SDS011;65238;42.662;23.280;2023-08-24T02:08:07;13.15;;;10.13;;
76409;SDS011;65238;42.662;23.280;2023-08-24T02:10:32;14.27;;;11.17;;
76409;SDS011;65238;42.662;23.280;2023-08-24T02:12:57;15.97;;;11.43;;
76409;SDS011;65238;42.662;23.280;2023-08-24T02:15:23;14.52;;;11.30;;
76409;SDS011;65238;42.662;23.280;2023-08-24T02:17:48;13.93;;;10.37;;
76409;SDS011;65238;42.662;23.280;2023-08-24T02:20:13;15.18;;;11.75;;
76409;SDS011;65238;42.662;23.280;2023-08-24T02:22:39;14.82;;;10.68;;
76409;SDS011;65238;42.662;23.280;2023-08-24T02:25:05;12.73;;;10.80;;
76409;SDS011;65238;42.662;23.280;2023-08-24T02:27:30;16.33;;;11.05;;
76409;SDS011;65238;42.662;23.280;2023-08-24T02:29:56;15.10;;;11.25;;
76409;SDS011;65238;42.662;23.280;2023-08-24T02:32:21;13.32;;;10.02;;
76409;SDS011;65238;42.662;23.280;2023-08-24T02:34:46;13.38;;;10.57;;
76409;SDS011;65238;42.662;23.280;2023-08-24T02:37:12;12.73;;;10.48;;
76409;SDS011;65238;42.662;23.280;2023-08-24T02:39:37;12.75;;;10.55;;
76409;SDS011;65238;42.662;23.280;2023-08-24T02:42:02;12.50;;;10.32;;
76409;SDS011;65238;42.662;23.280;2023-08-24T02:44:28;13.85;;;9.68;;
76409;SDS011;65238;42.662;23.280;2023-08-24T02:46:53;14.90;;;10.88;;
76409;SDS011;65238;42.662;23.280;2023-08-24T02:49:18;16.27;;;10.23;;
76409;SDS011;65238;42.662;23.280;2023-08-24T02:51:44;14.60;;;11.17;;
76409;SDS011;65238;42.662;23.280;2023-08-24T02:54:09;15.43;;;11.57;;
76409;SDS011;65238;42.662;23.280;2023-08-24T02:56:34;13.75;;;10.55;;
76409;SDS011;65238;42.662;23.280;2023-08-24T02:58:59;22.23;;;11.47;;
76409;SDS011;65238;42.662;23.280;2023-08-24T03:01:25;17.93;;;11.90;;
76409;SDS011;65238;42.662;23.280;2023-08-24T03:03:51;20.98;;;12.07;;
76409;SDS011;65238;42.662;23.280;2023-08-24T03:06:16;17.73;;;11.60;;
76409;SDS011;65238;42.662;23.280;2023-08-24T03:08:42;14.88;;;11.68;;
76409;SDS011;65238;42.662;23.280;2023-08-24T03:11:07;14.77;;;10.73;;
76409;SDS011;65238;42.662;23.280;2023-08-24T03:13:35;14.50;;;11.68;;
76409;SDS011;65238;42.662;23.280;2023-08-24T03:16:04;18.13;;;12.60;;
76409;SDS011;65238;42.662;23.280;2023-08-24T03:18:30;15.73;;;12.50;;
76409;SDS011;65238;42.662;23.280;2023-08-24T03:20:55;18.10;;;14.50;;
76409;SDS011;65238;42.662;23.280;2023-08-24T03:23:20;17.60;;;13.23;;
76409;SDS011;65238;42.662;23.280;2023-08-24T03:25:46;18.42;;;12.90;;
76409;SDS011;65238;42.662;23.280;2023-08-24T03:28:12;18.45;;;12.57;;
76409;SDS011;65238;42.662;23.280;2023-08-24T03:30:38;18.13;;;12.57;;
76409;SDS011;65238;42.662;23.280;2023-08-24T03:33:04;13.13;;;11.73;;
76409;SDS011;65238;42.662;23.280;2023-08-24T03:35:33;16.58;;;11.52;;
76409;SDS011;65238;42.662;23.280;2023-08-24T03:37:58;19.23;;;13.05;;
76409;SDS011;65238;42.662;23.280;2023-08-24T03:40:23;15.90;;;12.03;;
76409;SDS011;65238;42.662;23.280;2023-08-24T03:42:49;17.98;;;12.07;;
76409;SDS011;65238;42.662;23.280;2023-08-24T03:45:14;15.23;;;13.07;;
76409;SDS011;65238;42.662;23.280;2023-08-24T03:47:40;20.97;;;14.77;;
76409;SDS011;65238;42.662;23.280;2023-08-24T03:50:05;18.40;;;14.33;;
76409;SDS011;65238;42.662;23.280;2023-08-24T03:52:30;24.27;;;16.10;;
76409;SDS011;65238;42.662;23.280;2023-08-24T03:54:56;24.73;;;18.65;;
76409;SDS011;65238;42.662;23.280;2023-08-24T03:57:21;26.15;;;19.35;;
76409;SDS011;65238;42.662;23.280;2023-08-24T03:59:47;29.25;;;19.02;;
76409;SDS011;65238;42.662;23.280;2023-08-24T04:02:12;28.07;;;19.23;;
76409;SDS011;65238;42.662;23.280;2023-08-24T04:04:37;28.50;;;19.70;;
76409;SDS011;65238;42.662;23.280;2023-08-24T04:07:02;36.45;;;22.13;;
76409;SDS011;65238;42.662;23.280;2023-08-24T04:09:28;33.20;;;21.83;;
76409;SDS011;65238;42.662;23.280;2023-08-24T04:11:53;31.60;;;21.05;;
76409;SDS011;65238;42.662;23.280;2023-08-24T04:14:19;33.60;;;22.20;;
76409;SDS011;65238;42.662;23.280;2023-08-24T04:16:44;32.47;;;20.35;;
76409;SDS011;65238;42.662;23.280;2023-08-24T04:19:09;32.97;;;22.63;;
76409;SDS011;65238;42.662;23.280;2023-08-24T04:21:35;38.55;;;22.70;;
76409;SDS011;65238;42.662;23.280;2023-08-24T04:24:00;35.60;;;23.48;;
76409;SDS011;65238;42.662;23.280;2023-08-24T04:26:25;37.00;;;23.58;;
76409;SDS011;65238;42.662;23.280;2023-08-24T04:28:50;39.37;;;23.90;;
76409;SDS011;65238;42.662;23.280;2023-08-24T04:31:16;40.67;;;23.37;;
76409;SDS011;65238;42.662;23.280;2023-08-24T04:33:41;44.30;;;24.40;;
76409;SDS011;65238;42.662;23.280;2023-08-24T04:36:06;42.53;;;24.60;;
76409;SDS011;65238;42.662;23.280;2023-08-24T04:38:31;40.88;;;24.23;;
76409;SDS011;65238;42.662;23.280;2023-08-24T04:40:57;37.17;;;24.03;;
76409;SDS011;65238;42.662;23.280;2023-08-24T04:43:23;38.78;;;23.88;;
76409;SDS011;65238;42.662;23.280;2023-08-24T04:45:48;35.92;;;23.95;;
76409;SDS011;65238;42.662;23.280;2023-08-24T04:48:14;41.03;;;23.75;;
76409;SDS011;65238;42.662;23.280;2023-08-24T04:50:41;36.65;;;23.60;;
76409;SDS011;65238;42.662;23.280;2023-08-24T04:53:06;35.03;;;22.98;;
76409;SDS011;65238;42.662;23.280;2023-08-24T04:55:32;38.53;;;24.27;;
76409;SDS011;65238;42.662;23.280;2023-08-24T04:57:57;43.83;;;23.23;;
76409;SDS011;65238;42.662;23.280;2023-08-24T05:00:22;35.60;;;23.08;;
76409;SDS011;65238;42.662;23.280;2023-08-24T05:02:48;34.25;;;22.38;;
76409;SDS011;65238;42.662;23.280;2023-08-24T05:05:13;35.53;;;22.58;;
76409;SDS011;65238;42.662;23.280;2023-08-24T05:07:39;31.77;;;22.67;;
76409;SDS011;65238;42.662;23.280;2023-08-24T05:10:05;33.20;;;23.27;;
76409;SDS011;65238;42.662;23.280;2023-08-24T05:12:30;39.95;;;22.95;;
76409;SDS011;65238;42.662;23.280;2023-08-24T05:14:55;38.63;;;23.83;;
76409;SDS011;65238;42.662;23.280;2023-08-24T05:17:20;35.97;;;24.00;;
76409;SDS011;65238;42.662;23.280;2023-08-24T05:19:50;34.53;;;22.92;;
76409;SDS011;65238;42.662;23.280;2023-08-24T05:22:15;43.72;;;27.05;;
76409;SDS011;65238;42.662;23.280;2023-08-24T05:24:41;41.72;;;25.27;;
76409;SDS011;65238;42.662;23.280;2023-08-24T05:27:06;42.17;;;22.45;;
76409;SDS011;65238;42.662;23.280;2023-08-24T05:29:31;34.97;;;22.10;;
76409;SDS011;65238;42.662;23.280;2023-08-24T05:31:56;41.30;;;22.92;;
76409;SDS011;65238;42.662;23.280;2023-08-24T05:34:22;31.27;;;23.73;;
76409;SDS011;65238;42.662;23.280;2023-08-24T05:36:47;35.75;;;23.15;;
76409;SDS011;65238;42.662;23.280;2023-08-24T05:39:12;37.30;;;23.47;;
76409;SDS011;65238;42.662;23.280;2023-08-24T05:41:37;36.47;;;23.33;;
76409;SDS011;65238;42.662;23.280;2023-08-24T05:44:03;36.03;;;23.38;;
76409;SDS011;65238;42.662;23.280;2023-08-24T05:46:28;33.55;;;22.27;;
76409;SDS011;65238;42.662;23.280;2023-08-24T05:48:55;30.48;;;21.60;;
76409;SDS011;65238;42.662;23.280;2023-08-24T05:51:20;39.55;;;23.20;;
76409;SDS011;65238;42.662;23.280;2023-08-24T05:53:45;43.90;;;22.87;;
76409;SDS011;65238;42.662;23.280;2023-08-24T05:56:11;44.10;;;24.03;;
76409;SDS011;65238;42.662;23.280;2023-08-24T05:58:36;43.85;;;24.08;;
76409;SDS011;65238;42.662;23.280;2023-08-24T06:01:01;43.13;;;24.37;;
76409;SDS011;65238;42.662;23.280;2023-08-24T06:03:27;37.45;;;23.98;;
76409;SDS011;65238;42.662;23.280;2023-08-24T06:05:52;40.78;;;25.08;;
76409;SDS011;65238;42.662;23.280;2023-08-24T06:08:17;48.13;;;27.30;;
76409;SDS011;65238;42.662;23.280;2023-08-24T06:10:43;48.65;;;27.67;;
76409;SDS011;65238;42.662;23.280;2023-08-24T06:13:08;44.30;;;26.70;;
76409;SDS011;65238;42.662;23.280;2023-08-24T06:15:33;42.73;;;25.10;;
76409;SDS011;65238;42.662;23.280;2023-08-24T06:17:59;41.28;;;24.33;;
76409;SDS011;65238;42.662;23.280;2023-08-24T06:20:25;32.90;;;21.83;;
76409;SDS011;65238;42.662;23.280;2023-08-24T06:22:50;39.58;;;23.73;;
76409;SDS011;65238;42.662;23.280;2023-08-24T06:25:15;35.15;;;21.45;;
76409;SDS011;65238;42.662;23.280;2023-08-24T06:27:40;28.13;;;18.88;;
76409;SDS011;65238;42.662;23.280;2023-08-24T06:30:06;30.50;;;18.90;;
76409;SDS011;65238;42.662;23.280;2023-08-24T06:32:32;31.40;;;18.17;;
76409;SDS011;65238;42.662;23.280;2023-08-24T06:34:57;25.45;;;17.48;;
76409;SDS011;65238;42.662;23.280;2023-08-24T06:37:22;25.63;;;15.65;;
76409;SDS011;65238;42.662;23.280;2023-08-24T06:39:48;25.10;;;15.82;;
76409;SDS011;65238;42.662;23.280;2023-08-24T06:42:13;20.13;;;14.38;;
76409;SDS011;65238;42.662;23.280;2023-08-24T06:44:38;22.10;;;15.02;;
76409;SDS011;65238;42.662;23.280;2023-08-24T06:47:03;21.20;;;15.33;;
76409;SDS011;65238;42.662;23.280;2023-08-24T06:49:29;22.98;;;14.52;;
76409;SDS011;65238;42.662;23.280;2023-08-24T06:51:54;22.55;;;15.55;;
76409;SDS011;65238;42.662;23.280;2023-08-24T06:54:20;21.80;;;14.30;;
76409;SDS011;65238;42.662;23.280;2023-08-24T06:56:45;20.15;;;14.20;;
76409;SDS011;65238;42.662;23.280;2023-08-24T06:59:10;15.27;;;12.50;;
76409;SDS011;65238;42.662;23.280;2023-08-24T07:01:38;17.70;;;13.43;;
76409;SDS011;65238;42.662;23.280;2023-08-24T07:04:03;15.90;;;13.20;;
76409;SDS011;65238;42.662;23.280;2023-08-24T07:06:28;15.95;;;12.27;;
76409;SDS011;65238;42.662;23.280;2023-08-24T07:08:54;23.20;;;13.32;;
76409;SDS011;65238;42.662;23.280;2023-08-24T07:11:19;22.15;;;12.63;;
76409;SDS011;65238;42.662;23.280;2023-08-24T07:13:45;17.75;;;12.80;;
76409;SDS011;65238;42.662;23.280;2023-08-24T07:16:14;19.52;;;12.65;;
76409;SDS011;65238;42.662;23.280;2023-08-24T07:18:39;19.20;;;12.75;;
76409;SDS011;65238;42.662;23.280;2023-08-24T07:21:04;15.98;;;11.77;;
76409;SDS011;65238;42.662;23.280;2023-08-24T07:23:30;14.67;;;11.50;;
76409;SDS011;65238;42.662;23.280;2023-08-24T07:25:55;15.63;;;12.25;;
76409;SDS011;65238;42.662;23.280;2023-08-24T07:28:20;15.18;;;12.10;;
76409;SDS011;65238;42.662;23.280;2023-08-24T07:30:45;15.90;;;12.13;;
76409;SDS011;65238;42.662;23.280;2023-08-24T07:33:11;18.75;;;12.98;;
76409;SDS011;65238;42.662;23.280;2023-08-24T07:35:36;21.83;;;17.30;;
76409;SDS011;65238;42.662;23.280;2023-08-24T07:38:01;19.80;;;15.23;;
76409;SDS011;65238;42.662;23.280;2023-08-24T07:40:29;13.98;;;12.48;;
76409;SDS011;65238;42.662;23.280;2023-08-24T07:42:55;13.55;;;12.13;;
76409;SDS011;65238;42.662;23.280;2023-08-24T07:45:21;18.15;;;12.80;;
76409;SDS011;65238;42.662;23.280;2023-08-24T07:47:48;19.33;;;13.85;;
76409;SDS011;65238;42.662;23.280;2023-08-24T07:50:17;16.80;;;13.00;;
76409;SDS011;65238;42.662;23.280;2023-08-24T07:52:42;21.83;;;12.77;;
76409;SDS011;65238;42.662;23.280;2023-08-24T07:55:07;19.90;;;13.48;;
76409;SDS011;65238;42.662;23.280;2023-08-24T07:57:36;17.65;;;13.38;;
76409;SDS011;65238;42.662;23.280;2023-08-24T08:00:02;19.70;;;12.68;;
76409;SDS011;65238;42.662;23.280;2023-08-24T08:02:28;16.67;;;12.50;;
76409;SDS011;65238;42.662;23.280;2023-08-24T08:04:56;13.93;;;11.57;;
76409;SDS011;65238;42.662;23.280;2023-08-24T08:07:22;17.40;;;12.32;;
76409;SDS011;65238;42.662;23.280;2023-08-24T08:09:48;15.90;;;12.07;;
76409;SDS011;65238;42.662;23.280;2023-08-24T08:12:13;17.40;;;12.40;;
76409;SDS011;65238;42.662;23.280;2023-08-24T08:14:39;18.47;;;13.00;;
76409;SDS011;65238;42.662;23.280;2023-08-24T08:17:04;17.65;;;11.60;;
76409;SDS011;65238;42.662;23.280;2023-08-24T08:19:29;17.33;;;12.60;;
76409;SDS011;65238;42.662;23.280;2023-08-24T08:21:55;26.13;;;11.98;;
76409;SDS011;65238;42.662;23.280;2023-08-24T08:24:21;24.13;;;12.63;;
76409;SDS011;65238;42.662;23.280;2023-08-24T08:26:46;15.20;;;11.83;;
76409;SDS011;65238;42.662;23.280;2023-08-24T08:29:11;17.13;;;12.67;;
76409;SDS011;65238;42.662;23.280;2023-08-24T08:31:36;17.90;;;11.53;;
76409;SDS011;65238;42.662;23.280;2023-08-24T08:34:02;16.42;;;11.65;;
76409;SDS011;65238;42.662;23.280;2023-08-24T08:36:29;15.30;;;11.35;;
76409;SDS011;65238;42.662;23.280;2023-08-24T08:38:54;14.68;;;11.15;;
76409;SDS011;65238;42.662;23.280;2023-08-24T08:41:22;14.50;;;12.03;;
76409;SDS011;65238;42.662;23.280;2023-08-24T08:43:48;16.38;;;12.63;;
76409;SDS011;65238;42.662;23.280;2023-08-24T08:46:13;14.68;;;11.07;;
76409;SDS011;65238;42.662;23.280;2023-08-24T08:48:40;19.10;;;12.43;;
76409;SDS011;65238;42.662;23.280;2023-08-24T08:51:06;15.20;;;12.38;;
76409;SDS011;65238;42.662;23.280;2023-08-24T08:53:32;19.65;;;11.70;;
76409;SDS011;65238;42.662;23.280;2023-08-24T08:55:57;16.17;;;11.93;;
76409;SDS011;65238;42.662;23.280;2023-08-24T08:58:28;18.13;;;11.80;;
76409;SDS011;65238;42.662;23.280;2023-08-24T09:00:54;13.60;;;11.48;;
76409;SDS011;65238;42.662;23.280;2023-08-24T09:03:20;14.18;;;11.52;;
76409;SDS011;65238;42.662;23.280;2023-08-24T09:05:45;17.08;;;11.85;;
76409;SDS011;65238;42.662;23.280;2023-08-24T09:08:15;15.63;;;11.57;;
76409;SDS011;65238;42.662;23.280;2023-08-24T09:10:41;22.60;;;12.70;;
76409;SDS011;65238;42.662;23.280;2023-08-24T09:13:06;16.77;;;11.95;;
76409;SDS011;65238;42.662;23.280;2023-08-24T09:15:35;12.90;;;11.40;;
76409;SDS011;65238;42.662;23.280;2023-08-24T09:18:01;15.65;;;11.70;;
76409;SDS011;65238;42.662;23.280;2023-08-24T09:20:30;14.70;;;11.88;;
76409;SDS011;65238;42.662;23.280;2023-08-24T09:22:55;14.13;;;12.32;;
76409;SDS011;65238;42.662;23.280;2023-08-24T09:25:22;19.08;;;11.63;;
76409;SDS011;65238;42.662;23.280;2023-08-24T09:27:55;17.73;;;13.07;;
76409;SDS011;65238;42.662;23.280;2023-08-24T09:30:21;14.32;;;12.73;;
76409;SDS011;65238;42.662;23.280;2023-08-24T09:32:46;17.08;;;13.00;;
76409;SDS011;65238;42.662;23.280;2023-08-24T09:35:11;14.10;;;12.47;;
76409;SDS011;65238;42.662;23.280;2023-08-24T09:37:38;15.95;;;12.38;;
76409;SDS011;65238;42.662;23.280;2023-08-24T09:40:06;14.15;;;12.48;;
76409;SDS011;65238;42.662;23.280;2023-08-24T09:42:40;16.65;;;13.13;;
76409;SDS011;65238;42.662;23.280;2023-08-24T09:45:06;14.52;;;13.05;;
76409;SDS011;65238;42.662;23.280;2023-08-24T09:47:31;15.55;;;12.75;;
76409;SDS011;65238;42.662;23.280;2023-08-24T09:49:57;14.20;;;12.70;;
76409;SDS011;65238;42.662;23.280;2023-08-24T09:52:22;13.17;;;11.13;;
76409;SDS011;65238;42.662;23.280;2023-08-24T09:54:49;12.73;;;11.30;;
76409;SDS011;65238;42.662;23.280;2023-08-24T09:57:16;13.38;;;11.70;;
76409;SDS011;65238;42.662;23.280;2023-08-24T09:59:41;13.30;;;11.32;;
76409;SDS011;65238;42.662;23.280;2023-08-24T10:02:12;13.80;;;12.05;;
76409;SDS011;65238;42.662;23.280;2023-08-24T10:04:40;14.95;;;12.10;;
76409;SDS011;65238;42.662;23.280;2023-08-24T10:07:10;15.85;;;12.68;;
76409;SDS011;65238;42.662;23.280;2023-08-24T10:09:43;13.30;;;11.57;;
76409;SDS011;65238;42.662;23.280;2023-08-24T10:12:09;12.85;;;11.57;;
76409;SDS011;65238;42.662;23.280;2023-08-24T10:14:47;13.25;;;11.75;;
76409;SDS011;65238;42.662;23.280;2023-08-24T10:17:13;15.55;;;11.07;;
76409;SDS011;65238;42.662;23.280;2023-08-24T10:19:39;13.27;;;10.90;;
76409;SDS011;65238;42.662;23.280;2023-08-24T10:22:05;16.45;;;11.75;;
76409;SDS011;65238;42.662;23.280;2023-08-24T10:24:32;16.05;;;11.07;;
76409;SDS011;65238;42.662;23.280;2023-08-24T10:26:58;13.75;;;11.13;;
76409;SDS011;65238;42.662;23.280;2023-08-24T10:29:25;16.02;;;11.35;;
76409;SDS011;65238;42.662;23.280;2023-08-24T10:31:52;12.40;;;10.93;;
76409;SDS011;65238;42.662;23.280;2023-08-24T10:34:17;11.15;;;10.15;;
76409;SDS011;65238;42.662;23.280;2023-08-24T10:36:43;12.07;;;10.40;;
76409;SDS011;65238;42.662;23.280;2023-08-24T10:39:08;16.10;;;11.20;;
76409;SDS011;65238;42.662;23.280;2023-08-24T10:41:49;11.40;;;10.30;;
76409;SDS011;65238;42.662;23.280;2023-08-24T10:44:25;11.63;;;10.32;;
76409;SDS011;65238;42.662;23.280;2023-08-24T10:47:08;17.15;;;11.13;;
76409;SDS011;65238;42.662;23.280;2023-08-24T10:49:37;11.45;;;10.25;;
76409;SDS011;65238;42.662;23.280;2023-08-24T10:54:50;11.48;;;10.27;;
76409;SDS011;65238;42.662;23.280;2023-08-24T10:57:19;12.77;;;9.90;;
76409;SDS011;65238;42.662;23.280;2023-08-24T10:59:45;15.70;;;10.73;;
76409;SDS011;65238;42.662;23.280;2023-08-24T11:02:17;14.63;;;11.60;;
76409;SDS011;65238;42.662;23.280;2023-08-24T11:05:03;15.75;;;11.60;;
76409;SDS011;65238;42.662;23.280;2023-08-24T11:07:28;19.80;;;11.30;;
76409;SDS011;65238;42.662;23.280;2023-08-24T11:09:53;15.03;;;11.37;;
76409;SDS011;65238;42.662;23.280;2023-08-24T11:12:19;17.53;;;11.20;;
76409;SDS011;65238;42.662;23.280;2023-08-24T11:14:50;18.27;;;11.20;;
76409;SDS011;65238;42.662;23.280;2023-08-24T11:17:29;17.27;;;11.15;;
76409;SDS011;65238;42.662;23.280;2023-08-24T11:19:54;13.98;;;10.20;;
76409;SDS011;65238;42.662;23.280;2023-08-24T11:22:20;11.98;;;9.80;;
76409;SDS011;65238;42.662;23.280;2023-08-24T11:24:48;10.32;;;9.32;;
76409;SDS011;65238;42.662;23.280;2023-08-24T11:27:14;11.88;;;9.52;;
76409;SDS011;65238;42.662;23.280;2023-08-24T11:29:41;13.35;;;9.60;;
76409;SDS011;65238;42.662;23.280;2023-08-24T11:32:06;11.07;;;9.30;;
76409;SDS011;65238;42.662;23.280;2023-08-24T11:34:31;12.18;;;9.30;;
76409;SDS011;65238;42.662;23.280;2023-08-24T11:36:57;10.45;;;9.32;;
76409;SDS011;65238;42.662;23.280;2023-08-24T11:39:22;10.60;;;8.90;;
76409;SDS011;65238;42.662;23.280;2023-08-24T11:44:23;11.77;;;8.60;;
76409;SDS011;65238;42.662;23.280;2023-08-24T11:46:48;10.32;;;9.05;;
76409;SDS011;65238;42.662;23.280;2023-08-24T11:49:14;9.07;;;8.15;;
76409;SDS011;65238;42.662;23.280;2023-08-24T11:51:39;18.00;;;8.90;;
76409;SDS011;65238;42.662;23.280;2023-08-24T11:54:04;14.00;;;8.63;;
76409;SDS011;65238;42.662;23.280;2023-08-24T11:56:31;10.25;;;8.93;;
76409;SDS011;65238;42.662;23.280;2023-08-24T11:58:56;14.85;;;8.48;;
76409;SDS011;65238;42.662;23.280;2023-08-24T12:01:22;10.75;;;7.60;;
76409;SDS011;65238;42.662;23.280;2023-08-24T12:03:47;9.88;;;7.20;;
76409;SDS011;65238;42.662;23.280;2023-08-24T12:06:16;11.40;;;8.73;;
76409;SDS011;65238;42.662;23.280;2023-08-24T12:08:45;9.85;;;8.75;;
76409;SDS011;65238;42.662;23.280;2023-08-24T12:11:17;13.80;;;9.55;;
76409;SDS011;65238;42.662;23.280;2023-08-24T12:13:47;10.23;;;8.70;;
76409;SDS011;65238;42.662;23.280;2023-08-24T12:16:13;13.60;;;9.02;;
76409;SDS011;65238;42.662;23.280;2023-08-24T12:19:13;10.93;;;9.00;;
76409;SDS011;65238;42.662;23.280;2023-08-24T12:21:31;12.52;;;10.48;;
76409;SDS011;65238;42.662;23.280;2023-08-24T12:24:01;13.85;;;9.45;;
76409;SDS011;65238;42.662;23.280;2023-08-24T12:26:27;20.92;;;11.73;;
76409;SDS011;65238;42.662;23.280;2023-08-24T12:28:52;11.98;;;10.15;;
76409;SDS011;65238;42.662;23.280;2023-08-24T12:31:18;16.92;;;9.75;;
76409;SDS011;65238;42.662;23.280;2023-08-24T12:33:44;17.02;;;9.68;;
76409;SDS011;65238;42.662;23.280;2023-08-24T12:36:10;14.63;;;9.90;;
76409;SDS011;65238;42.662;23.280;2023-08-24T12:38:35;13.02;;;9.00;;
76409;SDS011;65238;42.662;23.280;2023-08-24T12:41:01;12.65;;;8.80;;
76409;SDS011;65238;42.662;23.280;2023-08-24T12:43:26;14.23;;;9.43;;
76409;SDS011;65238;42.662;23.280;2023-08-24T12:45:51;12.57;;;8.80;;
76409;SDS011;65238;42.662;23.280;2023-08-24T12:48:17;16.73;;;9.57;;
76409;SDS011;65238;42.662;23.280;2023-08-24T12:50:42;10.70;;;9.55;;
76409;SDS011;65238;42.662;23.280;2023-08-24T12:53:07;12.23;;;9.03;;
76409;SDS011;65238;42.662;23.280;2023-08-24T12:55:33;13.23;;;9.73;;
76409;SDS011;65238;42.662;23.280;2023-08-24T12:57:58;10.85;;;8.95;;
76409;SDS011;65238;42.662;23.280;2023-08-24T13:00:24;13.52;;;9.88;;
76409;SDS011;65238;42.662;23.280;2023-08-24T13:02:49;17.15;;;9.55;;
76409;SDS011;65238;42.662;23.280;2023-08-24T13:05:15;11.90;;;9.52;;
76409;SDS011;65238;42.662;23.280;2023-08-24T13:07:40;14.32;;;9.20;;
76409;SDS011;65238;42.662;23.280;2023-08-24T13:10:06;10.20;;;9.07;;
76409;SDS011;65238;42.662;23.280;2023-08-24T13:12:32;12.32;;;9.75;;
76409;SDS011;65238;42.662;23.280;2023-08-24T13:14:57;12.57;;;9.32;;
76409;SDS011;65238;42.662;23.280;2023-08-24T13:17:22;10.82;;;9.73;;
76409;SDS011;65238;42.662;23.280;2023-08-24T13:19:47;13.33;;;9.93;;
76409;SDS011;65238;42.662;23.280;2023-08-24T13:22:14;12.15;;;10.23;;
76409;SDS011;65238;42.662;23.280;2023-08-24T13:24:39;13.05;;;9.55;;
76409;SDS011;65238;42.662;23.280;2023-08-24T13:27:04;11.43;;;10.18;;
76409;SDS011;65238;42.662;23.280;2023-08-24T13:29:35;14.45;;;10.98;;
76409;SDS011;65238;42.662;23.280;2023-08-24T13:32:00;19.43;;;10.73;;
76409;SDS011;65238;42.662;23.280;2023-08-24T13:34:25;15.43;;;11.10;;
76409;SDS011;65238;42.662;23.280;2023-08-24T13:36:50;16.13;;;10.80;;
76409;SDS011;65238;42.662;23.280;2023-08-24T13:39:16;20.60;;;11.07;;
76409;SDS011;65238;42.662;23.280;2023-08-24T13:41:42;16.85;;;10.82;;
76409;SDS011;65238;42.662;23.280;2023-08-24T13:44:07;13.13;;;10.23;;
76409;SDS011;65238;42.662;23.280;2023-08-24T13:46:32;19.33;;;11.63;;
76409;SDS011;65238;42.662;23.280;2023-08-24T13:48:58;14.80;;;11.25;;
76409;SDS011;65238;42.662;23.280;2023-08-24T13:51:26;17.73;;;10.77;;
76409;SDS011;65238;42.662;23.280;2023-08-24T13:53:51;22.88;;;11.63;;
76409;SDS011;65238;42.662;23.280;2023-08-24T13:56:17;20.97;;;10.83;;
76409;SDS011;65238;42.662;23.280;2023-08-24T13:58:42;17.27;;;11.23;;
76409;SDS011;65238;42.662;23.280;2023-08-24T14:01:07;13.63;;;10.63;;
76409;SDS011;65238;42.662;23.280;2023-08-24T14:03:35;16.55;;;11.70;;
76409;SDS011;65238;42.662;23.280;2023-08-24T14:06:02;17.60;;;11.68;;
76409;SDS011;65238;42.662;23.280;2023-08-24T14:08:28;15.80;;;11.35;;
76409;SDS011;65238;42.662;23.280;2023-08-24T14:10:53;18.15;;;12.48;;